sensor_id;sensor_type;location;lat;lon;timestamp;pressure;altitude;pressure_sealevel;temperature;humidity
21803;BME280;18591;47.080;22.214;2023-01-28T00:00:19;99311.63;;;6.19;63.16
21803;BME280;18591;47.080;22.214;2023-01-28T00:02:22;99301.94;;;6.14;63.57
21803;BME280;18591;47.080;22.214;2023-01-28T00:04:24;99302.66;;;6.22;63.40
21803;BME280;18591;47.080;22.214;2023-01-28T00:06:27;99305.53;;;6.13;63.43
21803;BME280;18591;47.080;22.214;2023-01-28T00:08:30;99303.56;;;6.21;63.18
21803;BME280;18591;47.080;22.214;2023-01-28T00:10:32;99308.94;;;6.19;63.16
21803;BME280;18591;47.080;22.214;2023-01-28T00:12:35;99310.84;;;6.14;63.38
21803;BME280;18591;47.080;22.214;2023-01-28T00:14:38;99312.56;;;6.17;63.36
21803;BME280;18591;47.080;22.214;2023-01-28T00:16:40;99313.53;;;6.14;63.34
21803;BME280;18591;47.080;22.214;2023-01-28T00:18:43;99310.00;;;6.12;63.17
21803;BME280;18591;47.080;22.214;2023-01-28T00:21:02;99317.19;;;6.08;63.50
21803;BME280;18591;47.080;22.214;2023-01-28T00:23:04;99317.94;;;6.15;63.24
21803;BME280;18591;47.080;22.214;2023-01-28T00:25:07;99320.56;;;6.17;63.61
21803;BME280;18591;47.080;22.214;2023-01-28T00:27:09;99322.34;;;6.16;63.08
21803;BME280;18591;47.080;22.214;2023-01-28T00:29:14;99321.56;;;6.11;63.40
21803;BME280;18591;47.080;22.214;2023-01-28T00:31:20;99324.41;;;6.03;63.51
21803;BME280;18591;47.080;22.214;2023-01-28T00:33:23;99320.78;;;6.06;63.80
21803;BME280;18591;47.080;22.214;2023-01-28T00:35:26;99326.19;;;6.04;63.56
21803;BME280;18591;47.080;22.214;2023-01-28T00:37:28;99326.09;;;6.07;63.56
21803;BME280;18591;47.080;22.214;2023-01-28T00:39:32;99316.38;;;6.06;63.41
21803;BME280;18591;47.080;22.214;2023-01-28T00:41:35;99319.06;;;6.05;63.37
21803;BME280;18591;47.080;22.214;2023-01-28T00:43:39;99324.50;;;6.00;63.71
21803;BME280;18591;47.080;22.214;2023-01-28T00:45:42;99336.03;;;6.01;63.68
21803;BME280;18591;47.080;22.214;2023-01-28T00:47:45;99331.69;;;5.97;64.14
21803;BME280;18591;47.080;22.214;2023-01-28T00:49:49;99335.22;;;5.99;63.92
21803;BME280;18591;47.080;22.214;2023-01-28T00:51:51;99330.69;;;6.01;63.70
21803;BME280;18591;47.080;22.214;2023-01-28T00:53:54;99335.06;;;6.05;63.82
21803;BME280;18591;47.080;22.214;2023-01-28T00:55:56;99337.66;;;6.08;63.36
21803;BME280;18591;47.080;22.214;2023-01-28T00:57:58;99337.66;;;6.08;63.49
21803;BME280;18591;47.080;22.214;2023-01-28T01:00:01;99340.28;;;6.09;63.69
21803;BME280;18591;47.080;22.214;2023-01-28T01:02:07;99343.94;;;6.05;63.18
21803;BME280;18591;47.080;22.214;2023-01-28T01:04:15;99338.97;;;5.88;64.15
21803;BME280;18591;47.080;22.214;2023-01-28T01:06:34;99340.59;;;5.96;63.64
21803;BME280;18591;47.080;22.214;2023-01-28T01:08:37;99343.38;;;5.88;63.83
21803;BME280;18591;47.080;22.214;2023-01-28T01:10:44;99346.97;;;5.87;63.79
21803;BME280;18591;47.080;22.214;2023-01-28T01:12:47;99347.00;;;5.85;64.01
21803;BME280;18591;47.080;22.214;2023-01-28T01:14:49;99346.22;;;5.82;64.42
21803;BME280;18591;47.080;22.214;2023-01-28T01:16:52;99354.00;;;5.91;64.25
21803;BME280;18591;47.080;22.214;2023-01-28T01:18:55;99349.63;;;5.88;64.93
21803;BME280;18591;47.080;22.214;2023-01-28T01:20:58;99357.50;;;5.93;64.44
21803;BME280;18591;47.080;22.214;2023-01-28T01:23:00;99352.09;;;5.99;64.11
21803;BME280;18591;47.080;22.214;2023-01-28T01:25:04;99343.16;;;6.00;63.83
21803;BME280;18591;47.080;22.214;2023-01-28T01:27:06;99356.69;;;5.91;65.04
21803;BME280;18591;47.080;22.214;2023-01-28T01:29:10;99364.59;;;5.96;64.38
21803;BME280;18591;47.080;22.214;2023-01-28T01:31:17;99357.44;;;5.98;64.64
21803;BME280;18591;47.080;22.214;2023-01-28T01:33:20;99353.91;;;5.97;64.50
21803;BME280;18591;47.080;22.214;2023-01-28T01:35:23;99358.25;;;6.01;64.06
21803;BME280;18591;47.080;22.214;2023-01-28T01:37:27;99357.19;;;6.08;63.73
21803;BME280;18591;47.080;22.214;2023-01-28T01:39:30;99356.31;;;6.08;64.01
21803;BME280;18591;47.080;22.214;2023-01-28T01:41:33;99359.13;;;6.02;64.64
21803;BME280;18591;47.080;22.214;2023-01-28T01:43:53;99357.41;;;5.99;64.18
21803;BME280;18591;47.080;22.214;2023-01-28T01:45:58;99364.41;;;6.03;64.04
21803;BME280;18591;47.080;22.214;2023-01-28T01:48:19;99363.44;;;6.07;64.05
21803;BME280;18591;47.080;22.214;2023-01-28T01:50:45;99361.91;;;5.97;64.25
21803;BME280;18591;47.080;22.214;2023-01-28T01:52:53;99359.97;;;6.04;64.33
21803;BME280;18591;47.080;22.214;2023-01-28T01:55:00;99364.31;;;6.08;64.13
21803;BME280;18591;47.080;22.214;2023-01-28T01:57:04;99371.44;;;6.09;64.02
21803;BME280;18591;47.080;22.214;2023-01-28T01:59:16;99366.97;;;6.08;63.79
21803;BME280;18591;47.080;22.214;2023-01-28T02:01:26;99369.09;;;5.94;64.35
21803;BME280;18591;47.080;22.214;2023-01-28T02:03:39;99370.66;;;6.04;63.89
21803;BME280;18591;47.080;22.214;2023-01-28T02:05:44;99367.13;;;6.02;63.74
21803;BME280;18591;47.080;22.214;2023-01-28T02:07:49;99365.50;;;5.95;64.28
21803;BME280;18591;47.080;22.214;2023-01-28T02:09:52;99364.63;;;5.94;64.23
21803;BME280;18591;47.080;22.214;2023-01-28T02:12:00;99360.16;;;5.96;63.85
21803;BME280;18591;47.080;22.214;2023-01-28T02:14:08;99366.22;;;6.03;63.48
21803;BME280;18591;47.080;22.214;2023-01-28T02:16:15;99362.69;;;6.01;63.80
21803;BME280;18591;47.080;22.214;2023-01-28T02:18:18;99378.69;;;6.01;63.82
21803;BME280;18591;47.080;22.214;2023-01-28T02:20:27;99368.94;;;6.00;64.07
21803;BME280;18591;47.080;22.214;2023-01-28T02:22:57;99369.72;;;6.05;63.48
21803;BME280;18591;47.080;22.214;2023-01-28T02:25:29;99369.91;;;5.96;64.34
21803;BME280;18591;47.080;22.214;2023-01-28T02:32:26;99376.25;;;5.90;63.83
21803;BME280;18591;47.080;22.214;2023-01-28T02:34:46;99377.16;;;5.89;63.60
21803;BME280;18591;47.080;22.214;2023-01-28T02:39:23;99371.84;;;5.87;63.95
21803;BME280;18591;47.080;22.214;2023-01-28T02:41:56;99371.16;;;5.78;63.48
21803;BME280;18591;47.080;22.214;2023-01-28T02:44:01;99363.16;;;5.79;63.69
21803;BME280;18591;47.080;22.214;2023-01-28T02:48:47;99358.75;;;5.78;63.84
21803;BME280;18591;47.080;22.214;2023-01-28T02:50:54;99358.75;;;5.78;63.43
21803;BME280;18591;47.080;22.214;2023-01-28T02:53:24;99357.13;;;5.70;63.58
21803;BME280;18591;47.080;22.214;2023-01-28T02:58:30;99357.09;;;5.71;62.91
21803;BME280;18591;47.080;22.214;2023-01-28T03:00:59;99368.50;;;5.78;62.59
21803;BME280;18591;47.080;22.214;2023-01-28T03:03:18;99365.97;;;5.72;62.69
21803;BME280;18591;47.080;22.214;2023-01-28T03:05:31;99362.44;;;5.71;62.21
21803;BME280;18591;47.080;22.214;2023-01-28T03:07:37;99367.72;;;5.73;62.96
21803;BME280;18591;47.080;22.214;2023-01-28T03:09:42;99359.69;;;5.74;62.44
21803;BME280;18591;47.080;22.214;2023-01-28T03:14:23;99353.50;;;5.72;62.83
21803;BME280;18591;47.080;22.214;2023-01-28T03:16:46;99364.19;;;5.72;62.64
21803;BME280;18591;47.080;22.214;2023-01-28T03:19:07;99363.31;;;5.70;62.84
21803;BME280;18591;47.080;22.214;2023-01-28T03:21:37;99364.31;;;5.66;62.44
21803;BME280;18591;47.080;22.214;2023-01-28T03:24:10;99369.66;;;5.66;62.66
21803;BME280;18591;47.080;22.214;2023-01-28T03:26:43;99365.09;;;5.71;62.43
21803;BME280;18591;47.080;22.214;2023-01-28T03:29:09;99369.59;;;5.67;62.34
21803;BME280;18591;47.080;22.214;2023-01-28T03:31:36;99365.06;;;5.73;62.32
21803;BME280;18591;47.080;22.214;2023-01-28T03:33:59;99369.50;;;5.72;62.46
21803;BME280;18591;47.080;22.214;2023-01-28T03:36:20;99369.41;;;5.77;62.52
21803;BME280;18591;47.080;22.214;2023-01-28T03:38:48;99372.09;;;5.77;62.32
21803;BME280;18591;47.080;22.214;2023-01-28T03:40:57;99362.38;;;5.73;62.48
21803;BME280;18591;47.080;22.214;2023-01-28T03:43:01;99368.56;;;5.76;62.48
21803;BME280;18591;47.080;22.214;2023-01-28T03:45:08;99364.16;;;5.74;62.11
21803;BME280;18591;47.080;22.214;2023-01-28T03:47:12;99367.63;;;5.77;62.06
21803;BME280;18591;47.080;22.214;2023-01-28T03:49:17;99375.13;;;5.58;62.37
21803;BME280;18591;47.080;22.214;2023-01-28T03:51:20;99379.28;;;5.73;62.18
21803;BME280;18591;47.080;22.214;2023-01-28T03:53:22;99372.09;;;5.75;61.90
21803;BME280;18591;47.080;22.214;2023-01-28T03:55:25;99368.66;;;5.70;62.11
21803;BME280;18591;47.080;22.214;2023-01-28T03:57:28;99382.84;;;5.72;61.95
21803;BME280;18591;47.080;22.214;2023-01-28T03:59:33;99379.38;;;5.67;62.16
21803;BME280;18591;47.080;22.214;2023-01-28T04:01:35;99378.59;;;5.63;62.20
21803;BME280;18591;47.080;22.214;2023-01-28T04:03:38;99378.53;;;5.65;62.39
21803;BME280;18591;47.080;22.214;2023-01-28T04:06:08;99383.06;;;5.61;62.63
21803;BME280;18591;47.080;22.214;2023-01-28T04:08:23;99386.66;;;5.59;62.39
21803;BME280;18591;47.080;22.214;2023-01-28T04:10:44;99386.59;;;5.62;62.15
21803;BME280;18591;47.080;22.214;2023-01-28T04:13:06;99387.63;;;5.55;62.50
21803;BME280;18591;47.080;22.214;2023-01-28T04:15:10;99390.28;;;5.56;62.53
21803;BME280;18591;47.080;22.214;2023-01-28T04:17:22;99388.38;;;5.63;62.49
21803;BME280;18591;47.080;22.214;2023-01-28T04:19:26;99389.31;;;5.60;62.54
21803;BME280;18591;47.080;22.214;2023-01-28T04:21:32;99392.84;;;5.61;62.36
21803;BME280;18591;47.080;22.214;2023-01-28T04:23:35;99381.34;;;5.59;62.56
21803;BME280;18591;47.080;22.214;2023-01-28T04:25:37;99391.22;;;5.54;62.50
21803;BME280;18591;47.080;22.214;2023-01-28T04:27:42;99398.28;;;5.56;62.35
21803;BME280;18591;47.080;22.214;2023-01-28T04:29:51;99397.50;;;5.51;62.55
21803;BME280;18591;47.080;22.214;2023-01-28T04:32:11;99405.63;;;5.45;62.69
21803;BME280;18591;47.080;22.214;2023-01-28T04:34:33;99394.13;;;5.41;62.74
21803;BME280;18591;47.080;22.214;2023-01-28T04:36:54;99403.97;;;5.38;63.34
21803;BME280;18591;47.080;22.214;2023-01-28T04:39:35;99395.03;;;5.40;63.26
21803;BME280;18591;47.080;22.214;2023-01-28T04:41:50;99396.78;;;5.41;63.10
21803;BME280;18591;47.080;22.214;2023-01-28T04:43:59;99395.84;;;5.44;63.12
21803;BME280;18591;47.080;22.214;2023-01-28T04:46:23;99402.03;;;5.46;63.09
21803;BME280;18591;47.080;22.214;2023-01-28T04:48:36;99407.28;;;5.49;62.90
21803;BME280;18591;47.080;22.214;2023-01-28T04:50:51;99395.91;;;5.42;62.73
21803;BME280;18591;47.080;22.214;2023-01-28T04:53:07;99382.50;;;5.45;62.91
21803;BME280;18591;47.080;22.214;2023-01-28T04:55:20;99394.13;;;5.41;62.83
21803;BME280;18591;47.080;22.214;2023-01-28T04:57:23;99387.84;;;5.44;62.48
21803;BME280;18591;47.080;22.214;2023-01-28T04:59:26;99387.94;;;5.39;62.88
21803;BME280;18591;47.080;22.214;2023-01-28T05:01:29;99387.97;;;5.38;62.92
21803;BME280;18591;47.080;22.214;2023-01-28T05:03:31;99392.38;;;5.40;63.00
21803;BME280;18591;47.080;22.214;2023-01-28T05:05:39;99395.91;;;5.42;63.18
21803;BME280;18591;47.080;22.214;2023-01-28T05:07:55;99401.16;;;5.45;63.17
21803;BME280;18591;47.080;22.214;2023-01-28T05:09:58;99401.09;;;5.47;62.97
21803;BME280;18591;47.080;22.214;2023-01-28T05:12:01;99410.88;;;5.48;62.85
21803;BME280;18591;47.080;22.214;2023-01-28T05:14:05;99410.72;;;5.56;63.17
21803;BME280;18591;47.080;22.214;2023-01-28T05:16:17;99415.25;;;5.51;63.05
21803;BME280;18591;47.080;22.214;2023-01-28T05:18:20;99424.00;;;5.57;63.12
21803;BME280;18591;47.080;22.214;2023-01-28T05:20:36;99421.38;;;5.56;63.01
21803;BME280;18591;47.080;22.214;2023-01-28T05:22:39;99415.84;;;5.66;62.74
21803;BME280;18591;47.080;22.214;2023-01-28T05:25:08;99413.19;;;5.65;62.86
21803;BME280;18591;47.080;22.214;2023-01-28T05:27:11;99414.81;;;5.72;62.42
21803;BME280;18591;47.080;22.214;2023-01-28T05:29:14;99420.19;;;5.71;63.01
21803;BME280;18591;47.080;22.214;2023-01-28T05:31:17;99418.50;;;5.66;62.93
21803;BME280;18591;47.080;22.214;2023-01-28T05:33:19;99416.78;;;5.62;62.56
21803;BME280;18591;47.080;22.214;2023-01-28T05:35:22;99406.19;;;5.61;63.05
21803;BME280;18591;47.080;22.214;2023-01-28T05:37:25;99411.53;;;5.59;63.12
21803;BME280;18591;47.080;22.214;2023-01-28T05:39:30;99423.97;;;5.60;62.79
21803;BME280;18591;47.080;22.214;2023-01-28T05:41:33;99425.72;;;5.61;62.41
21803;BME280;18591;47.080;22.214;2023-01-28T05:43:37;99430.38;;;5.50;63.22
21803;BME280;18591;47.080;22.214;2023-01-28T05:45:49;99436.53;;;5.52;62.99
21803;BME280;18591;47.080;22.214;2023-01-28T05:48:00;99441.13;;;5.45;63.19
21803;BME280;18591;47.080;22.214;2023-01-28T05:50:16;99442.88;;;5.46;63.34
21803;BME280;18591;47.080;22.214;2023-01-28T05:52:41;99447.34;;;5.44;63.44
21803;BME280;18591;47.080;22.214;2023-01-28T05:54:53;99445.53;;;5.46;63.60
21803;BME280;18591;47.080;22.214;2023-01-28T05:56:59;99446.38;;;5.50;63.32
21803;BME280;18591;47.080;22.214;2023-01-28T05:59:03;99446.38;;;5.49;63.49
21803;BME280;18591;47.080;22.214;2023-01-28T06:01:07;99455.25;;;5.49;63.62
21803;BME280;18591;47.080;22.214;2023-01-28T06:03:19;99448.09;;;5.53;63.18
21803;BME280;18591;47.080;22.214;2023-01-28T06:05:22;99455.25;;;5.49;63.11
21803;BME280;18591;47.080;22.214;2023-01-28T06:07:24;99454.31;;;5.53;63.25
21803;BME280;18591;47.080;22.214;2023-01-28T06:09:27;99456.03;;;5.54;63.22
21803;BME280;18591;47.080;22.214;2023-01-28T06:11:29;99467.63;;;5.52;63.30
21803;BME280;18591;47.080;22.214;2023-01-28T06:13:37;99461.28;;;5.59;63.12
21803;BME280;18591;47.080;22.214;2023-01-28T06:16:01;99463.09;;;5.58;63.19
21803;BME280;18591;47.080;22.214;2023-01-28T06:18:22;99467.44;;;5.62;63.16
21803;BME280;18591;47.080;22.214;2023-01-28T06:20:25;99468.41;;;5.58;63.25
21803;BME280;18591;47.080;22.214;2023-01-28T06:22:30;99476.31;;;5.63;62.79
21803;BME280;18591;47.080;22.214;2023-01-28T06:24:34;99472.88;;;5.58;63.23
21803;BME280;18591;47.080;22.214;2023-01-28T06:26:36;99470.22;;;5.56;63.27
21803;BME280;18591;47.080;22.214;2023-01-28T06:28:40;99469.38;;;5.54;63.33
21803;BME280;18591;47.080;22.214;2023-01-28T06:30:42;99475.63;;;5.53;63.66
21803;BME280;18591;47.080;22.214;2023-01-28T06:32:44;99476.31;;;5.63;63.52
21803;BME280;18591;47.080;22.214;2023-01-28T06:34:46;99473.75;;;5.58;63.62
21803;BME280;18591;47.080;22.214;2023-01-28T06:36:48;99478.16;;;5.59;63.41
21803;BME280;18591;47.080;22.214;2023-01-28T06:38:51;99483.47;;;5.61;63.70
21803;BME280;18591;47.080;22.214;2023-01-28T06:40:53;99489.59;;;5.64;63.49
21803;BME280;18591;47.080;22.214;2023-01-28T06:42:56;99487.72;;;5.71;62.97
21803;BME280;18591;47.080;22.214;2023-01-28T06:44:59;99492.25;;;5.66;63.16
21803;BME280;18591;47.080;22.214;2023-01-28T06:47:02;99501.94;;;5.70;62.93
21803;BME280;18591;47.080;22.214;2023-01-28T06:49:04;99493.06;;;5.70;63.15
21803;BME280;18591;47.080;22.214;2023-01-28T06:51:06;99488.59;;;5.72;62.89
21803;BME280;18591;47.080;22.214;2023-01-28T06:53:08;99491.22;;;5.73;63.25
21803;BME280;18591;47.080;22.214;2023-01-28T06:55:10;99491.22;;;5.73;63.12
21803;BME280;18591;47.080;22.214;2023-01-28T06:57:13;99499.25;;;5.70;63.29
21803;BME280;18591;47.080;22.214;2023-01-28T06:59:14;99503.78;;;5.66;63.53
21803;BME280;18591;47.080;22.214;2023-01-28T07:01:17;99508.09;;;5.74;62.88
21803;BME280;18591;47.080;22.214;2023-01-28T07:03:19;99510.63;;;5.80;63.01
21803;BME280;18591;47.080;22.214;2023-01-28T07:05:22;99508.91;;;5.77;62.93
21803;BME280;18591;47.080;22.214;2023-01-28T07:07:24;99513.38;;;5.77;63.32
21803;BME280;18591;47.080;22.214;2023-01-28T07:09:26;99512.44;;;5.79;63.04
21803;BME280;18591;47.080;22.214;2023-01-28T07:11:28;99516.09;;;5.74;63.21
21803;BME280;18591;47.080;22.214;2023-01-28T07:13:31;99519.63;;;5.74;62.83
21803;BME280;18591;47.080;22.214;2023-01-28T07:15:33;99517.00;;;5.73;63.11
21803;BME280;18591;47.080;22.214;2023-01-28T07:17:38;99520.56;;;5.73;62.91
21803;BME280;18591;47.080;22.214;2023-01-28T07:19:42;99527.75;;;5.68;63.17
21803;BME280;18591;47.080;22.214;2023-01-28T07:21:44;99531.41;;;5.62;63.27
21803;BME280;18591;47.080;22.214;2023-01-28T07:23:49;99525.97;;;5.67;63.16
21803;BME280;18591;47.080;22.214;2023-01-28T07:25:52;99526.75;;;5.74;63.05
21803;BME280;18591;47.080;22.214;2023-01-28T07:27:54;99517.91;;;5.72;63.14
21803;BME280;18591;47.080;22.214;2023-01-28T07:29:56;99532.19;;;5.67;63.15
21803;BME280;18591;47.080;22.214;2023-01-28T07:31:58;99541.88;;;5.73;62.88
21803;BME280;18591;47.080;22.214;2023-01-28T07:34:00;99540.16;;;5.69;63.09
21803;BME280;18591;47.080;22.214;2023-01-28T07:36:03;99538.44;;;5.66;63.47
21803;BME280;18591;47.080;22.214;2023-01-28T07:38:05;99541.09;;;5.66;63.21
21803;BME280;18591;47.080;22.214;2023-01-28T07:40:08;99539.38;;;5.64;63.27
21803;BME280;18591;47.080;22.214;2023-01-28T07:42:11;99542.09;;;5.61;63.63
21803;BME280;18591;47.080;22.214;2023-01-28T07:44:20;99542.03;;;5.64;63.34
21803;BME280;18591;47.080;22.214;2023-01-28T07:46:22;99554.44;;;5.65;63.43
21803;BME280;18591;47.080;22.214;2023-01-28T07:48:24;99550.03;;;5.62;63.61
21803;BME280;18591;47.080;22.214;2023-01-28T07:50:27;99550.03;;;5.64;63.83
21803;BME280;18591;47.080;22.214;2023-01-28T07:52:30;99548.25;;;5.64;63.73
21803;BME280;18591;47.080;22.214;2023-01-28T07:54:33;99546.44;;;5.65;63.69
21803;BME280;18591;47.080;22.214;2023-01-28T07:56:35;99546.56;;;5.60;63.96
21803;BME280;18591;47.080;22.214;2023-01-28T07:58:37;99542.91;;;5.64;63.78
21803;BME280;18591;47.080;22.214;2023-01-28T08:00:40;99549.09;;;5.66;64.15
21803;BME280;18591;47.080;22.214;2023-01-28T08:02:42;99543.63;;;5.74;63.74
21803;BME280;18591;47.080;22.214;2023-01-28T08:04:48;99546.22;;;5.79;63.53
21803;BME280;18591;47.080;22.214;2023-01-28T08:06:51;99544.34;;;5.82;63.57
21803;BME280;18591;47.080;22.214;2023-01-28T08:08:53;99551.47;;;5.82;63.57
21803;BME280;18591;47.080;22.214;2023-01-28T08:10:55;99550.41;;;5.92;63.32
21803;BME280;18591;47.080;22.214;2023-01-28T08:12:57;99554.94;;;5.87;63.17
21803;BME280;18591;47.080;22.214;2023-01-28T08:15:00;99549.69;;;5.84;63.57
21803;BME280;18591;47.080;22.214;2023-01-28T08:17:02;99552.41;;;5.81;63.78
21803;BME280;18591;47.080;22.214;2023-01-28T08:19:04;99546.06;;;5.86;63.55
21803;BME280;18591;47.080;22.214;2023-01-28T08:21:07;99551.31;;;5.91;63.27
21803;BME280;18591;47.080;22.214;2023-01-28T08:23:15;99550.41;;;5.90;63.10
21803;BME280;18591;47.080;22.214;2023-01-28T08:25:18;99557.50;;;5.95;63.31
21803;BME280;18591;47.080;22.214;2023-01-28T08:27:21;99558.41;;;5.94;63.51
21803;BME280;18591;47.080;22.214;2023-01-28T08:29:23;99558.28;;;6.01;63.16
21803;BME280;18591;47.080;22.214;2023-01-28T08:31:26;99554.66;;;6.04;63.19
21803;BME280;18591;47.080;22.214;2023-01-28T08:33:30;99561.84;;;6.00;63.37
21803;BME280;18591;47.080;22.214;2023-01-28T08:35:35;99553.03;;;5.97;63.28
21803;BME280;18591;47.080;22.214;2023-01-28T08:37:37;99560.09;;;5.99;63.70
21803;BME280;18591;47.080;22.214;2023-01-28T08:39:39;99561.63;;;6.11;63.45
21803;BME280;18591;47.080;22.214;2023-01-28T08:41:41;99563.38;;;6.12;62.93
21803;BME280;18591;47.080;22.214;2023-01-28T08:43:44;99561.34;;;6.25;62.71
21803;BME280;18591;47.080;22.214;2023-01-28T08:45:46;99565.78;;;6.26;63.18
21803;BME280;18591;47.080;22.214;2023-01-28T08:47:57;99566.91;;;6.14;63.40
21803;BME280;18591;47.080;22.214;2023-01-28T08:50:01;99569.47;;;6.19;63.21
21803;BME280;18591;47.080;22.214;2023-01-28T08:52:04;99569.59;;;6.13;63.61
21803;BME280;18591;47.080;22.214;2023-01-28T08:54:06;99566.78;;;6.19;63.38
21803;BME280;18591;47.080;22.214;2023-01-28T08:56:08;99567.78;;;6.15;64.09
21803;BME280;18591;47.080;22.214;2023-01-28T08:58:12;99566.91;;;6.14;64.20
21803;BME280;18591;47.080;22.214;2023-01-28T09:00:15;99571.25;;;6.20;63.71
21803;BME280;18591;47.080;22.214;2023-01-28T09:02:18;99575.75;;;6.16;64.25
21803;BME280;18591;47.080;22.214;2023-01-28T09:04:32;99575.63;;;6.22;64.09
21803;BME280;18591;47.080;22.214;2023-01-28T09:06:34;99571.03;;;6.29;63.75
21803;BME280;18591;47.080;22.214;2023-01-28T09:08:37;99570.16;;;6.30;63.66
21803;BME280;18591;47.080;22.214;2023-01-28T09:10:40;99566.63;;;6.28;63.29
21803;BME280;18591;47.080;22.214;2023-01-28T09:12:46;99574.69;;;6.25;63.57
21803;BME280;18591;47.080;22.214;2023-01-28T09:14:48;99563.09;;;6.27;63.79
21803;BME280;18591;47.080;22.214;2023-01-28T09:16:51;99573.53;;;6.38;63.57
21803;BME280;18591;47.080;22.214;2023-01-28T09:18:53;99574.34;;;6.42;63.44
21803;BME280;18591;47.080;22.214;2023-01-28T09:20:56;99566.22;;;6.48;63.23
21803;BME280;18591;47.080;22.214;2023-01-28T09:22:59;99559.88;;;6.53;62.74
21803;BME280;18591;47.080;22.214;2023-01-28T09:25:01;99564.25;;;6.56;63.04
21803;BME280;18591;47.080;22.214;2023-01-28T09:27:04;99561.53;;;6.58;62.78
21803;BME280;18591;47.080;22.214;2023-01-28T09:29:06;99565.13;;;6.58;62.62
21803;BME280;18591;47.080;22.214;2023-01-28T09:31:10;99563.34;;;6.57;62.67
21803;BME280;18591;47.080;22.214;2023-01-28T09:33:13;99561.59;;;6.56;62.52
21803;BME280;18591;47.080;22.214;2023-01-28T09:35:15;99570.38;;;6.61;62.10
21803;BME280;18591;47.080;22.214;2023-01-28T09:37:18;99567.50;;;6.70;62.37
21803;BME280;18591;47.080;22.214;2023-01-28T09:39:21;99566.59;;;6.71;62.24
21803;BME280;18591;47.080;22.214;2023-01-28T09:41:35;99562.16;;;6.70;62.15
21803;BME280;18591;47.080;22.214;2023-01-28T09:46:04;99566.66;;;6.68;62.06
21803;BME280;18591;47.080;22.214;2023-01-28T09:48:14;99571.09;;;6.68;62.49
21803;BME280;18591;47.080;22.214;2023-01-28T09:50:38;99569.28;;;6.71;62.63
21803;BME280;18591;47.080;22.214;2023-01-28T09:52:44;99571.94;;;6.71;62.73
21803;BME280;18591;47.080;22.214;2023-01-28T09:54:54;99571.88;;;6.73;62.45
21803;BME280;18591;47.080;22.214;2023-01-28T09:57:04;99576.25;;;6.77;62.80
21803;BME280;18591;47.080;22.214;2023-01-28T10:03:48;99578.06;;;6.76;63.68
21803;BME280;18591;47.080;22.214;2023-01-28T10:10:42;99582.41;;;6.81;63.66
21803;BME280;18591;47.080;22.214;2023-01-28T10:13:14;99577.91;;;6.83;63.58
21803;BME280;18591;47.080;22.214;2023-01-28T10:15:31;99579.78;;;6.79;63.81
21803;BME280;18591;47.080;22.214;2023-01-28T10:17:43;99584.09;;;6.85;63.09
21803;BME280;18591;47.080;22.214;2023-01-28T10:19:50;99576.34;;;6.74;63.42
21803;BME280;18591;47.080;22.214;2023-01-28T10:22:11;99574.22;;;6.88;63.14
21803;BME280;18591;47.080;22.214;2023-01-28T10:24:24;99577.97;;;6.80;63.32
21803;BME280;18591;47.080;22.214;2023-01-28T10:26:33;99579.72;;;6.81;63.84
21803;BME280;18591;47.080;22.214;2023-01-28T10:28:36;99575.03;;;6.92;63.28
21803;BME280;18591;47.080;22.214;2023-01-28T10:30:39;99566.19;;;6.90;62.93
21803;BME280;18591;47.080;22.214;2023-01-28T10:33:19;99571.59;;;6.87;63.39
21803;BME280;18591;47.080;22.214;2023-01-28T10:35:24;99561.59;;;6.96;62.34
21803;BME280;18591;47.080;22.214;2023-01-28T10:37:27;99564.28;;;6.95;63.00
21803;BME280;18591;47.080;22.214;2023-01-28T10:39:30;99554.56;;;6.92;62.98
21803;BME280;18591;47.080;22.214;2023-01-28T10:41:32;99556.19;;;6.98;62.43
21803;BME280;18591;47.080;22.214;2023-01-28T10:43:37;99567.94;;;6.91;62.60
21803;BME280;18591;47.080;22.214;2023-01-28T10:46:05;99562.88;;;6.79;63.39
21803;BME280;18591;47.080;22.214;2023-01-28T10:50:53;99563.34;;;6.97;62.99
21803;BME280;18591;47.080;22.214;2023-01-28T10:53:03;99566.97;;;6.93;62.93
21803;BME280;18591;47.080;22.214;2023-01-28T10:55:05;99569.63;;;6.95;63.22
21803;BME280;18591;47.080;22.214;2023-01-28T10:57:11;99565.16;;;6.95;63.75
21803;BME280;18591;47.080;22.214;2023-01-28T10:59:40;99567.75;;;6.98;63.65
21803;BME280;18591;47.080;22.214;2023-01-28T11:01:44;99563.19;;;7.04;63.24
21803;BME280;18591;47.080;22.214;2023-01-28T11:03:54;99570.38;;;7.02;63.80
21803;BME280;18591;47.080;22.214;2023-01-28T11:05:57;99578.31;;;7.05;63.46
21803;BME280;18591;47.080;22.214;2023-01-28T11:08:13;99571.97;;;7.09;63.83
21803;BME280;18591;47.080;22.214;2023-01-28T11:10:27;99573.81;;;7.07;64.03
21803;BME280;18591;47.080;22.214;2023-01-28T11:12:30;99567.56;;;7.06;63.78
21803;BME280;18591;47.080;22.214;2023-01-28T11:14:32;99569.25;;;7.12;63.88
21803;BME280;18591;47.080;22.214;2023-01-28T11:16:38;99570.06;;;7.14;63.69
21803;BME280;18591;47.080;22.214;2023-01-28T11:19:02;99580.13;;;7.04;63.75
21803;BME280;18591;47.080;22.214;2023-01-28T11:21:17;99568.16;;;7.19;63.59
21803;BME280;18591;47.080;22.214;2023-01-28T11:23:46;99577.00;;;7.23;63.70
21803;BME280;18591;47.080;22.214;2023-01-28T11:26:07;99572.44;;;7.26;62.73
21803;BME280;18591;47.080;22.214;2023-01-28T11:28:18;99576.91;;;7.26;63.23
21803;BME280;18591;47.080;22.214;2023-01-28T11:30:36;99564.78;;;7.11;63.52
21803;BME280;18591;47.080;22.214;2023-01-28T11:32:41;99574.34;;;7.21;62.85
21803;BME280;18591;47.080;22.214;2023-01-28T11:34:49;99570.06;;;7.14;63.08
21803;BME280;18591;47.080;22.214;2023-01-28T11:37:09;99565.63;;;7.14;62.65
21803;BME280;18591;47.080;22.214;2023-01-28T11:39:24;99570.22;;;7.08;62.62
21803;BME280;18591;47.080;22.214;2023-01-28T11:41:31;99560.19;;;7.17;62.88
21803;BME280;18591;47.080;22.214;2023-01-28T11:43:34;99563.66;;;7.21;62.74
21803;BME280;18591;47.080;22.214;2023-01-28T11:45:46;99565.53;;;7.17;62.62